Terminal Aerodrome Forecast
Issued by NWS

Home | Current Version | Previous Version | Text Only | Print | Product List | Glossary On
Versions: 1 2 3 4 5 6 7 8 9 10 11 12 13 14 15 16 17 18
000
FTUS45 KRIW 242323
TAFJAC
TAF
KJAC 242323Z 2500/2524 19012KT P6SM BKN045
     FM250400 20007KT P6SM SCT050
     FM250900 VRB06KT P6SM VCFG SCT010
     FM251700 20009KT P6SM BKN100
      AMD LTD TO CLD VIS AND WIND=

USA.gov is the U.S. government's official web portal to all federal, state and local government web resources and services.